PWSweather.com
Personal Weather Stations
Station Observations
INORDPAS37
Bondues, BonduesFR 59910

BonduesBonduesFR 59910

Lat: 50.7, Lon: 3.09

Elevation: 102

Station Type: Netatmo

http://bondues.meteoamikuze.com

High Low Average
Temperature 54.5°F12.5°C 43.9°F6.6°C 48.2°F9.0°C
Dew Point 41.4°F5.2°C 32.4°F0.2°C 36.5°F2.5°C
Winds 3.8 mph 6.1 kmh 0.7 mph 1.1 kmh 2.0 mph S3.2 kmh S
Wind Gusts 10.5 mph16.9 kmh 1.8 mph2.9 kmh 5.0 mph8.0 kmh
Humidity 71% 66% 69%
Pressure 30.16 in1021.3 mb 29.89 in1012.2 mb -
Precipitation 0.01 in0.3 mm - -
Hour Temp Dew Point Humidity Winds Wind Gusts Pressure Precip Precip Rate Daily Precip Total
12:05 AM 51.8°F11.0°C 40.3°F4.6°C 70% 3.1 mph SW5.0 kmh SW 7.4 mph11.9 kmh 29.89 in1012.2 mb 0.03 in0.8 mm 0.38 in9.7 mm 0.01 in0.3 mm
12:25 AM 51.3°F10.7°C 40.1°F4.5°C 71% 1.8 mph SW2.9 kmh SW 3.8 mph6.1 kmh 29.90 in1012.5 mb 0.03 in0.8 mm 0.00 in0.0 mm 0.01 in0.3 mm
12:45 AM 50.9°F10.5°C 39.7°F4.3°C 71% 1.8 mph SSW2.9 kmh SSW 4.9 mph7.9 kmh 29.91 in1012.9 mb 0.02 in0.5 mm 0.00 in0.0 mm 0.01 in0.3 mm
01:05 AM 50.7°F10.4°C 39.6°F4.2°C 71% 2.5 mph SSW4.0 kmh SSW 5.6 mph9.0 kmh 29.92 in1013.2 mb 0.00 in0.0 mm 0.00 in0.0 mm 0.01 in0.3 mm
01:25 AM 50.5°F10.3°C 39.6°F4.2°C 71% 2.5 mph SW4.0 kmh SW 4.9 mph7.9 kmh 29.93 in1013.5 mb 0.00 in0.0 mm 0.00 in0.0 mm 0.01 in0.3 mm
01:45 AM 50.4°F10.2°C 39.4°F4.1°C 71% 3.1 mph SW5.0 kmh SW 8.7 mph14.0 kmh 29.94 in1013.9 mb 0.00 in0.0 mm 0.00 in0.0 mm 0.01 in0.3 mm
01:53 AM 50.4°F10.2°C 39.4°F4.1°C 71% 3.1 mph SW5.0 kmh SW 7.4 mph11.9 kmh 29.95 in1014.2 mb 0.00 in0.0 mm 0.00 in0.0 mm 0.01 in0.3 mm
02:23 AM 50.0°F10.0°C 39.0°F3.9°C 71% 3.8 mph SW6.1 kmh SW 7.4 mph11.9 kmh 29.97 in1014.9 mb 0.00 in0.0 mm 0.00 in0.0 mm 0.01 in0.3 mm
02:43 AM 49.6°F9.8°C 38.7°F3.7°C 71% 3.1 mph SW5.0 kmh SW 6.9 mph11.1 kmh 29.99 in1015.6 mb 0.00 in0.0 mm 0.00 in0.0 mm 0.01 in0.3 mm
03:04 AM 49.3°F9.6°C 38.3°F3.5°C 71% 2.5 mph SW4.0 kmh SW 4.9 mph7.9 kmh 29.99 in1015.6 mb 0.00 in0.0 mm 0.00 in0.0 mm 0.01 in0.3 mm
03:23 AM 48.9°F9.4°C 37.9°F3.3°C 71% 2.5 mph SW4.0 kmh SW 5.6 mph9.0 kmh 30.00 in1015.9 mb 0.00 in0.0 mm 0.00 in0.0 mm 0.01 in0.3 mm
03:33 AM 48.6°F9.2°C 37.6°F3.1°C 71% 3.1 mph SW5.0 kmh SW 7.4 mph11.9 kmh 30.00 in1015.9 mb 0.00 in0.0 mm 0.00 in0.0 mm 0.01 in0.3 mm
04:03 AM 47.8°F8.8°C 36.9°F2.7°C 71% 2.5 mph SW4.0 kmh SW 4.3 mph6.9 kmh 30.02 in1016.6 mb 0.00 in0.0 mm 0.00 in0.0 mm 0.01 in0.3 mm
04:24 AM 47.3°F8.5°C 36.3°F2.4°C 71% 3.1 mph SW5.0 kmh SW 5.6 mph9.0 kmh 30.03 in1016.9 mb 0.00 in0.0 mm 0.00 in0.0 mm 0.01 in0.3 mm
04:43 AM 46.9°F8.3°C 36.0°F2.2°C 71% 1.8 mph SW2.9 kmh SW 4.3 mph6.9 kmh 30.04 in1017.3 mb 0.00 in0.0 mm 0.00 in0.0 mm 0.01 in0.3 mm
05:04 AM 46.4°F8.0°C 35.4°F1.9°C 71% 1.8 mph SSW2.9 kmh SSW 4.3 mph6.9 kmh 30.06 in1017.9 mb 0.00 in0.0 mm 0.00 in0.0 mm 0.01 in0.3 mm
05:24 AM 46.4°F8.0°C 35.4°F1.9°C 71% 3.1 mph SSW5.0 kmh SSW 6.9 mph11.1 kmh 30.07 in1018.3 mb 0.00 in0.0 mm 0.00 in0.0 mm 0.01 in0.3 mm
05:44 AM 46.2°F7.9°C 35.2°F1.8°C 71% 2.5 mph SSW4.0 kmh SSW 6.9 mph11.1 kmh 30.08 in1018.6 mb 0.00 in0.0 mm 0.00 in0.0 mm 0.01 in0.3 mm
06:04 AM 45.9°F7.7°C 35.1°F1.7°C 71% 2.5 mph SSW4.0 kmh SSW 4.9 mph7.9 kmh 30.09 in1019.0 mb 0.00 in0.0 mm 0.00 in0.0 mm 0.01 in0.3 mm
06:24 AM 45.7°F7.6°C 34.9°F1.6°C 71% 2.5 mph S4.0 kmh S 4.9 mph7.9 kmh 30.09 in1019.0 mb 0.00 in0.0 mm 0.00 in0.0 mm 0.01 in0.3 mm
06:44 AM 45.3°F7.4°C 34.5°F1.4°C 71% 1.8 mph S2.9 kmh S 4.9 mph7.9 kmh 30.10 in1019.3 mb 0.00 in0.0 mm 0.00 in0.0 mm 0.01 in0.3 mm
07:04 AM 45.0°F7.2°C 34.2°F1.2°C 71% 2.5 mph S4.0 kmh S 5.6 mph9.0 kmh 30.10 in1019.3 mb 0.00 in0.0 mm 0.00 in0.0 mm 0.01 in0.3 mm
07:24 AM 44.8°F7.1°C 34.0°F1.1°C 71% 1.8 mph SSW2.9 kmh SSW 3.8 mph6.1 kmh 30.11 in1019.6 mb 0.00 in0.0 mm 0.00 in0.0 mm 0.01 in0.3 mm
07:45 AM 44.4°F6.9°C 33.6°F0.9°C 71% 2.5 mph SSW4.0 kmh SSW 4.3 mph6.9 kmh 30.12 in1020.0 mb 0.00 in0.0 mm 0.00 in0.0 mm 0.01 in0.3 mm
08:04 AM 44.1°F6.7°C 33.3°F0.7°C 71% 1.8 mph S2.9 kmh S 4.3 mph6.9 kmh 30.13 in1020.3 mb 0.00 in0.0 mm 0.00 in0.0 mm 0.01 in0.3 mm
08:25 AM 44.1°F6.7°C 33.3°F0.7°C 71% 1.8 mph SSW2.9 kmh SSW 3.8 mph6.1 kmh 30.13 in1020.3 mb 0.00 in0.0 mm 0.00 in0.0 mm 0.01 in0.3 mm
08:44 AM 44.1°F6.7°C 33.3°F0.7°C 71% 1.8 mph S2.9 kmh S 3.8 mph6.1 kmh 30.14 in1020.7 mb 0.00 in0.0 mm 0.00 in0.0 mm 0.01 in0.3 mm
09:05 AM 44.2°F6.8°C 33.4°F0.8°C 71% 2.5 mph S4.0 kmh S 4.3 mph6.9 kmh 30.14 in1020.7 mb 0.00 in0.0 mm 0.00 in0.0 mm 0.01 in0.3 mm
09:25 AM 45.0°F7.2°C 34.2°F1.2°C 71% 2.5 mph S4.0 kmh S 4.9 mph7.9 kmh 30.14 in1020.7 mb 0.00 in0.0 mm 0.00 in0.0 mm 0.01 in0.3 mm
09:45 AM 46.0°F7.8°C 35.2°F1.8°C 71% 2.5 mph SSW4.0 kmh SSW 4.3 mph6.9 kmh 30.14 in1020.7 mb 0.00 in0.0 mm 0.00 in0.0 mm 0.01 in0.3 mm
10:06 AM 47.5°F8.6°C 36.5°F2.5°C 71% 3.1 mph S5.0 kmh S 8.1 mph13.0 kmh 30.14 in1020.7 mb 0.00 in0.0 mm 0.00 in0.0 mm 0.01 in0.3 mm
10:26 AM 48.7°F9.3°C 37.8°F3.2°C 71% 2.5 mph S4.0 kmh S 5.6 mph9.0 kmh 30.15 in1021.0 mb 0.00 in0.0 mm 0.00 in0.0 mm 0.01 in0.3 mm
10:46 AM 49.8°F9.9°C 38.8°F3.8°C 71% 3.1 mph SSW5.0 kmh SSW 8.1 mph13.0 kmh 30.16 in1021.3 mb 0.00 in0.0 mm 0.00 in0.0 mm 0.01 in0.3 mm
11:06 AM 50.9°F10.5°C 39.7°F4.3°C 71% 1.8 mph SW2.9 kmh SW 4.3 mph6.9 kmh 30.16 in1021.3 mb 0.00 in0.0 mm 0.00 in0.0 mm 0.01 in0.3 mm
11:26 AM 51.8°F11.0°C 40.6°F4.8°C 71% 2.5 mph S4.0 kmh S 5.6 mph9.0 kmh 30.16 in1021.3 mb 0.00 in0.0 mm 0.00 in0.0 mm 0.01 in0.3 mm
11:36 AM 52.0°F11.1°C 40.5°F4.7°C 70% 3.1 mph SSW5.0 kmh SSW 8.1 mph13.0 kmh 30.16 in1021.3 mb 0.00 in0.0 mm 0.00 in0.0 mm 0.01 in0.3 mm
12:07 PM 52.5°F11.4°C 40.6°F4.8°C 69% 3.1 mph S5.0 kmh S 9.8 mph15.8 kmh 30.15 in1021.0 mb 0.00 in0.0 mm 0.00 in0.0 mm 0.01 in0.3 mm
12:27 PM 53.2°F11.8°C 41.4°F5.2°C 69% 2.5 mph S4.0 kmh S 5.6 mph9.0 kmh 30.15 in1021.0 mb 0.00 in0.0 mm 0.00 in0.0 mm 0.01 in0.3 mm
12:47 PM 53.8°F12.1°C 41.0°F5.0°C 67% 3.8 mph S6.1 kmh S 8.7 mph14.0 kmh 30.14 in1020.7 mb 0.00 in0.0 mm 0.00 in0.0 mm 0.01 in0.3 mm
01:08 PM 54.0°F12.2°C 41.2°F5.1°C 67% 2.5 mph S4.0 kmh S 4.9 mph7.9 kmh 30.14 in1020.7 mb 0.00 in0.0 mm 0.00 in0.0 mm 0.01 in0.3 mm
01:27 PM 54.5°F12.5°C 41.4°F5.2°C 66% 2.5 mph S4.0 kmh S 4.9 mph7.9 kmh 30.14 in1020.7 mb 0.00 in0.0 mm 0.00 in0.0 mm 0.01 in0.3 mm
01:48 PM 53.6°F12.0°C 40.5°F4.7°C 66% 3.1 mph SSE5.0 kmh SSE 8.7 mph14.0 kmh 30.14 in1020.7 mb 0.00 in0.0 mm 0.00 in0.0 mm 0.01 in0.3 mm
02:07 PM 52.3°F11.3°C 39.2°F4.0°C 66% 3.1 mph S5.0 kmh S 10.5 mph16.9 kmh 30.13 in1020.3 mb 0.00 in0.0 mm 0.00 in0.0 mm 0.01 in0.3 mm
02:28 PM 51.4°F10.8°C 38.5°F3.6°C 66% 3.8 mph SSE6.1 kmh SSE 7.4 mph11.9 kmh 30.12 in1020.0 mb 0.00 in0.0 mm 0.00 in0.0 mm 0.01 in0.3 mm
02:48 PM 51.1°F10.6°C 38.1°F3.4°C 66% 1.8 mph SSE2.9 kmh SSE 4.3 mph6.9 kmh 30.12 in1020.0 mb 0.00 in0.0 mm 0.00 in0.0 mm 0.01 in0.3 mm
03:08 PM 50.9°F10.5°C 37.9°F3.3°C 66% 3.1 mph SE5.0 kmh SE 5.6 mph9.0 kmh 30.12 in1020.0 mb 0.00 in0.0 mm 0.00 in0.0 mm 0.01 in0.3 mm
03:29 PM 50.9°F10.5°C 37.9°F3.3°C 66% 3.1 mph SE5.0 kmh SE 6.9 mph11.1 kmh 30.11 in1019.6 mb 0.00 in0.0 mm 0.00 in0.0 mm 0.01 in0.3 mm
03:49 PM 50.9°F10.5°C 37.9°F3.3°C 66% 2.5 mph SSE4.0 kmh SSE 4.9 mph7.9 kmh 30.11 in1019.6 mb 0.00 in0.0 mm 0.00 in0.0 mm 0.01 in0.3 mm
04:09 PM 50.9°F10.5°C 37.9°F3.3°C 66% 2.5 mph SE4.0 kmh SE 4.9 mph7.9 kmh 30.11 in1019.6 mb 0.00 in0.0 mm 0.00 in0.0 mm 0.01 in0.3 mm
04:29 PM 50.7°F10.4°C 37.8°F3.2°C 66% 1.8 mph SSE2.9 kmh SSE 6.9 mph11.1 kmh 30.10 in1019.3 mb 0.00 in0.0 mm 0.00 in0.0 mm 0.01 in0.3 mm
04:39 PM 50.5°F10.3°C 37.6°F3.1°C 66% 0.7 mph SSE1.1 kmh SSE 2.5 mph4.0 kmh 30.10 in1019.3 mb 0.00 in0.0 mm 0.00 in0.0 mm 0.01 in0.3 mm
04:59 PM 50.2°F10.1°C 37.2°F2.9°C 66% 1.3 mph S2.1 kmh S 3.1 mph5.0 kmh 30.09 in1019.0 mb 0.00 in0.0 mm 0.00 in0.0 mm 0.01 in0.3 mm
05:20 PM 49.5°F9.7°C 36.5°F2.5°C 66% 1.3 mph SE2.1 kmh SE 2.5 mph4.0 kmh 30.10 in1019.3 mb 0.00 in0.0 mm 0.00 in0.0 mm 0.01 in0.3 mm
05:40 PM 48.9°F9.4°C 36.3°F2.4°C 67% 1.8 mph SE2.9 kmh SE 4.3 mph6.9 kmh 30.09 in1019.0 mb 0.00 in0.0 mm 0.00 in0.0 mm 0.01 in0.3 mm
06:00 PM 48.6°F9.2°C 36.0°F2.2°C 67% 1.3 mph SSE2.1 kmh SSE 3.1 mph5.0 kmh 30.10 in1019.3 mb 0.00 in0.0 mm 0.00 in0.0 mm 0.01 in0.3 mm
06:20 PM 48.2°F9.0°C 35.8°F2.1°C 67% 1.3 mph SE2.1 kmh SE 3.1 mph5.0 kmh 30.09 in1019.0 mb 0.00 in0.0 mm 0.00 in0.0 mm 0.01 in0.3 mm
06:40 PM 47.7°F8.7°C 35.2°F1.8°C 67% 1.8 mph SE2.9 kmh SE 3.1 mph5.0 kmh 30.09 in1019.0 mb 0.00 in0.0 mm 0.00 in0.0 mm 0.01 in0.3 mm
07:00 PM 47.3°F8.5°C 34.9°F1.6°C 67% 1.3 mph SSE2.1 kmh SSE 3.1 mph5.0 kmh 30.09 in1019.0 mb 0.00 in0.0 mm 0.00 in0.0 mm 0.01 in0.3 mm
07:21 PM 46.8°F8.2°C 34.3°F1.3°C 67% 0.7 mph SSE1.1 kmh SSE 2.5 mph4.0 kmh 30.09 in1019.0 mb 0.00 in0.0 mm 0.00 in0.0 mm 0.01 in0.3 mm
07:41 PM 46.2°F7.9°C 34.2°F1.2°C 68% 0.7 mph SSE1.1 kmh SSE 2.5 mph4.0 kmh 30.08 in1018.6 mb 0.00 in0.0 mm 0.00 in0.0 mm 0.01 in0.3 mm
08:01 PM 45.5°F7.5°C 33.4°F0.8°C 68% 1.3 mph SE2.1 kmh SE 2.5 mph4.0 kmh 30.07 in1018.3 mb 0.00 in0.0 mm 0.00 in0.0 mm 0.01 in0.3 mm
08:22 PM 45.1°F7.3°C 33.1°F0.6°C 68% 0.7 mph E1.1 kmh E 1.8 mph2.9 kmh 30.06 in1017.9 mb 0.00 in0.0 mm 0.00 in0.0 mm 0.01 in0.3 mm
08:41 PM 44.6°F7.0°C 32.7°F0.4°C 68% 1.3 mph SE2.1 kmh SE 2.5 mph4.0 kmh 30.06 in1017.9 mb 0.00 in0.0 mm 0.00 in0.0 mm 0.01 in0.3 mm
09:02 PM 44.6°F7.0°C 32.7°F0.4°C 68% 1.3 mph SE2.1 kmh SE 3.1 mph5.0 kmh 30.06 in1017.9 mb 0.00 in0.0 mm 0.00 in0.0 mm 0.01 in0.3 mm
09:21 PM 44.6°F7.0°C 33.1°F0.6°C 69% 1.3 mph ESE2.1 kmh ESE 2.5 mph4.0 kmh 30.06 in1017.9 mb 0.00 in0.0 mm 0.00 in0.0 mm 0.01 in0.3 mm
09:42 PM 44.6°F7.0°C 33.1°F0.6°C 69% 0.7 mph SE1.1 kmh SE 1.8 mph2.9 kmh 30.05 in1017.6 mb 0.00 in0.0 mm 0.00 in0.0 mm 0.01 in0.3 mm
10:02 PM 44.2°F6.8°C 32.7°F0.4°C 69% 1.3 mph SE2.1 kmh SE 2.5 mph4.0 kmh 30.04 in1017.3 mb 0.00 in0.0 mm 0.00 in0.0 mm 0.01 in0.3 mm
10:22 PM 43.9°F6.6°C 32.4°F0.2°C 69% 1.3 mph E2.1 kmh E 2.5 mph4.0 kmh 30.04 in1017.3 mb 0.00 in0.0 mm 0.00 in0.0 mm 0.01 in0.3 mm
10:43 PM 43.9°F6.6°C 32.4°F0.2°C 69% 1.3 mph ESE2.1 kmh ESE 3.1 mph5.0 kmh 30.03 in1016.9 mb 0.00 in0.0 mm 0.00 in0.0 mm 0.01 in0.3 mm
11:03 PM 44.1°F6.7°C 32.5°F0.3°C 69% 1.3 mph ESE2.1 kmh ESE 3.1 mph5.0 kmh 30.02 in1016.6 mb 0.00 in0.0 mm 0.00 in0.0 mm 0.01 in0.3 mm
11:23 PM 44.2°F6.8°C 32.7°F0.4°C 69% 1.3 mph E2.1 kmh E 4.3 mph6.9 kmh 30.01 in1016.3 mb 0.00 in0.0 mm 0.00 in0.0 mm 0.01 in0.3 mm
11:43 PM 44.2°F6.8°C 32.7°F0.4°C 69% 1.3 mph SE2.1 kmh SE 3.1 mph5.0 kmh 30.00 in1015.9 mb 0.00 in0.0 mm 0.00 in0.0 mm 0.01 in0.3 mm